Time,TemperatureF,DewpointF,PressureIn,WindDirection,WindDirectionDegrees,WindSpeedMPH,WindSpeedGustMPH,Humidity,HourlyPrecipIn,Conditions,Clouds,dailyrainin,SolarRadiationWatts/m^2,SoftwareType,DateUTC
2013-03-31 00:00:00,30.0,-99.9,-100.00,SE,140,0.0,2.0,-999,-99.99,,,0.00,0.000000,,2013-03-31 06:00:00,
2013-03-31 01:00:00,28.0,-99.9,-100.00,North,-999,-999.0,-999.0,-999,-99.99,,,0.00,,,2013-03-31 07:00:00,
2013-03-31 01:53:00,28.0,-99.9,-100.00,North,-999,-999.0,-999.0,-999,-99.99,,,0.00,,,2013-03-31 07:53:00,
2013-03-31 02:00:00,26.0,-99.9,-100.00,North,2,1.0,5.0,-999,-99.99,,,-99.99,0.000000,,2013-03-31 08:00:00,
2013-03-31 03:00:00,24.0,-99.9,-100.00,NE,49,0.0,1.0,-999,-99.99,,,0.00,0.000000,,2013-03-31 09:00:00,
2013-03-31 04:00:00,24.0,-99.9,-100.00,North,356,1.0,4.0,-999,-99.99,,,-99.99,0.000000,,2013-03-31 10:00:00,
2013-03-31 05:00:00,23.0,-99.9,-100.00,North,350,2.0,3.0,-999,-99.99,,,-99.99,0.000000,,2013-03-31 11:00:00,
2013-03-31 06:00:00,20.0,-99.9,-100.00,North,5,0.0,3.0,-999,-99.99,,,-99.99,0.000000,,2013-03-31 12:00:00,
2013-03-31 07:00:00,20.0,-99.9,-100.00,North,351,0.0,3.0,-999,-99.99,,,-99.99,0.000000,,2013-03-31 13:00:00,
2013-03-31 08:00:00,20.0,-99.9,-100.00,NNW,347,1.0,3.0,-999,-99.99,,,0.00,0.300000,,2013-03-31 14:00:00,
2013-03-31 09:00:00,25.0,-99.9,-100.00,North,349,1.0,3.0,-999,-99.99,,,0.00,2.000000,,2013-03-31 15:00:00,
2013-03-31 10:00:00,35.0,-99.9,-100.00,NW,321,2.0,3.0,-999,-99.99,,,0.00,9.500000,,2013-03-31 16:00:00,
2013-03-31 11:00:00,41.0,-99.9,-100.00,NW,309,3.0,4.0,-999,-99.99,,,0.00,14.300000,,2013-03-31 17:00:00,
2013-03-31 12:00:00,44.0,-99.9,-100.00,NW,317,3.0,4.0,-999,-99.99,,,0.00,18.500000,,2013-03-31 18:00:00,
2013-03-31 13:00:00,50.0,-99.9,-100.00,NW,308,3.0,4.0,-999,-99.99,,,-99.99,21.400000,,2013-03-31 19:00:00,
2013-03-31 14:00:00,52.0,-99.9,-100.00,NW,312,3.0,5.0,-999,-99.99,,,0.00,22.600000,,2013-03-31 20:00:00,
2013-03-31 15:00:00,55.0,-99.9,-100.00,NW,314,3.0,4.0,-999,-99.99,,,0.00,22.299999,,2013-03-31 21:00:00,
2013-03-31 16:00:00,58.0,-99.9,-100.00,NNW,335,4.0,6.0,-999,-99.99,,,0.00,20.400000,,2013-03-31 22:00:00,
2013-03-31 17:00:00,60.0,-99.9,-100.00,WNW,290,3.0,4.0,-999,-99.99,,,0.00,17.299999,,2013-03-31 23:00:00,
2013-03-31 18:00:00,58.0,-99.9,-100.00,NW,312,3.0,5.0,-999,-99.99,,,0.00,13.000000,,2013-04-01 00:00:00,
2013-03-31 19:00:00,58.0,-99.9,-100.00,NW,324,6.0,7.0,-999,-99.99,,,0.00,8.000000,,2013-04-01 01:00:00,
2013-03-31 20:00:00,50.0,-99.9,-100.00,NW,304,3.0,6.0,-999,-99.99,,,0.00,2.700000,,2013-04-01 02:00:00,
2013-03-31 21:00:00,48.0,-99.9,-100.00,NNE,17,1.0,3.0,-999,-99.99,,,0.00,0.100000,,2013-04-01 03:00:00,
2013-03-31 22:00:00,39.0,-99.9,-100.00,NNW,346,2.0,4.0,-999,-99.99,,,0.00,0.000000,,2013-04-01 04:00:00,
2013-03-31 23:00:00,34.0,-99.9,-100.00,NW,315,1.0,4.0,-999,-99.99,,,0.00,0.000000,,2013-04-01 05:00:00,